sensor_id;sensor_type;location;lat;lon;timestamp;P1;durP1;ratioP1;P2;durP2;ratioP2
25331;SDS011;13284;52.748;13.452;2023-06-10T00:01:44;4.83;;;4.23;;
25331;SDS011;13284;52.748;13.452;2023-06-10T00:04:12;7.73;;;4.47;;
25331;SDS011;13284;52.748;13.452;2023-06-10T00:06:38;5.30;;;3.77;;
25331;SDS011;13284;52.748;13.452;2023-06-10T00:09:04;7.13;;;4.00;;
25331;SDS011;13284;52.748;13.452;2023-06-10T00:11:35;7.23;;;3.83;;
25331;SDS011;13284;52.748;13.452;2023-06-10T00:14:01;5.33;;;3.80;;
25331;SDS011;13284;52.748;13.452;2023-06-10T00:16:26;5.97;;;4.03;;
25331;SDS011;13284;52.748;13.452;2023-06-10T00:18:52;7.27;;;4.47;;
25331;SDS011;13284;52.748;13.452;2023-06-10T00:21:20;5.70;;;3.90;;
25331;SDS011;13284;52.748;13.452;2023-06-10T00:23:46;7.73;;;4.57;;
25331;SDS011;13284;52.748;13.452;2023-06-10T00:26:12;5.30;;;4.40;;
25331;SDS011;13284;52.748;13.452;2023-06-10T00:28:37;6.23;;;3.70;;
25331;SDS011;13284;52.748;13.452;2023-06-10T00:31:03;9.33;;;4.60;;
25331;SDS011;13284;52.748;13.452;2023-06-10T00:33:29;11.90;;;5.03;;
25331;SDS011;13284;52.748;13.452;2023-06-10T00:35:55;4.67;;;3.83;;
25331;SDS011;13284;52.748;13.452;2023-06-10T00:38:21;5.80;;;4.20;;
25331;SDS011;13284;52.748;13.452;2023-06-10T00:40:46;6.50;;;3.50;;
25331;SDS011;13284;52.748;13.452;2023-06-10T00:43:12;5.63;;;4.10;;
25331;SDS011;13284;52.748;13.452;2023-06-10T00:45:37;9.13;;;4.20;;
25331;SDS011;13284;52.748;13.452;2023-06-10T00:48:03;5.30;;;3.13;;
25331;SDS011;13284;52.748;13.452;2023-06-10T00:50:29;8.00;;;4.93;;
25331;SDS011;13284;52.748;13.452;2023-06-10T00:52:56;7.30;;;4.03;;
25331;SDS011;13284;52.748;13.452;2023-06-10T00:55:24;9.20;;;4.20;;
25331;SDS011;13284;52.748;13.452;2023-06-10T00:57:52;5.43;;;3.93;;
25331;SDS011;13284;52.748;13.452;2023-06-10T01:00:18;8.30;;;3.80;;
25331;SDS011;13284;52.748;13.452;2023-06-10T01:02:44;8.30;;;4.03;;
25331;SDS011;13284;52.748;13.452;2023-06-10T01:05:09;7.50;;;4.23;;
25331;SDS011;13284;52.748;13.452;2023-06-10T01:10:41;7.03;;;4.27;;
25331;SDS011;13284;52.748;13.452;2023-06-10T01:13:11;8.90;;;4.47;;
25331;SDS011;13284;52.748;13.452;2023-06-10T01:15:38;7.33;;;4.90;;
25331;SDS011;13284;52.748;13.452;2023-06-10T01:18:05;7.70;;;4.17;;
25331;SDS011;13284;52.748;13.452;2023-06-10T01:20:34;4.63;;;4.17;;
25331;SDS011;13284;52.748;13.452;2023-06-10T01:23:05;6.40;;;3.93;;
25331;SDS011;13284;52.748;13.452;2023-06-10T01:25:32;6.03;;;4.00;;
25331;SDS011;13284;52.748;13.452;2023-06-10T01:28:10;8.57;;;3.87;;
25331;SDS011;13284;52.748;13.452;2023-06-10T01:33:49;8.90;;;4.37;;
25331;SDS011;13284;52.748;13.452;2023-06-10T01:36:17;6.00;;;3.83;;
25331;SDS011;13284;52.748;13.452;2023-06-10T01:38:45;6.57;;;4.07;;
25331;SDS011;13284;52.748;13.452;2023-06-10T01:41:16;7.10;;;4.03;;
25331;SDS011;13284;52.748;13.452;2023-06-10T01:43:45;6.13;;;3.40;;
25331;SDS011;13284;52.748;13.452;2023-06-10T01:46:11;5.27;;;3.57;;
25331;SDS011;13284;52.748;13.452;2023-06-10T01:48:41;7.90;;;4.00;;
25331;SDS011;13284;52.748;13.452;2023-06-10T01:51:09;5.13;;;3.80;;
25331;SDS011;13284;52.748;13.452;2023-06-10T01:53:35;8.60;;;3.83;;
25331;SDS011;13284;52.748;13.452;2023-06-10T01:56:01;11.27;;;4.60;;
25331;SDS011;13284;52.748;13.452;2023-06-10T01:58:26;6.23;;;4.37;;
25331;SDS011;13284;52.748;13.452;2023-06-10T02:00:52;5.87;;;4.70;;
25331;SDS011;13284;52.748;13.452;2023-06-10T02:03:17;7.13;;;3.70;;
25331;SDS011;13284;52.748;13.452;2023-06-10T02:05:43;9.10;;;4.77;;
25331;SDS011;13284;52.748;13.452;2023-06-10T02:08:11;7.30;;;4.20;;
25331;SDS011;13284;52.748;13.452;2023-06-10T02:10:36;7.67;;;4.10;;
25331;SDS011;13284;52.748;13.452;2023-06-10T02:13:05;7.10;;;4.23;;
25331;SDS011;13284;52.748;13.452;2023-06-10T02:15:31;5.43;;;3.50;;
25331;SDS011;13284;52.748;13.452;2023-06-10T02:17:57;7.03;;;4.00;;
25331;SDS011;13284;52.748;13.452;2023-06-10T02:20:24;10.20;;;5.63;;
25331;SDS011;13284;52.748;13.452;2023-06-10T02:22:50;9.90;;;3.93;;
25331;SDS011;13284;52.748;13.452;2023-06-10T02:25:15;6.40;;;4.20;;
25331;SDS011;13284;52.748;13.452;2023-06-10T02:27:41;5.67;;;3.90;;
25331;SDS011;13284;52.748;13.452;2023-06-10T02:30:06;6.97;;;4.37;;
25331;SDS011;13284;52.748;13.452;2023-06-10T02:32:34;6.30;;;4.30;;
25331;SDS011;13284;52.748;13.452;2023-06-10T02:35:00;6.10;;;4.20;;
25331;SDS011;13284;52.748;13.452;2023-06-10T02:37:26;6.27;;;4.03;;
25331;SDS011;13284;52.748;13.452;2023-06-10T02:39:52;5.97;;;4.10;;
25331;SDS011;13284;52.748;13.452;2023-06-10T02:42:17;10.00;;;4.23;;
25331;SDS011;13284;52.748;13.452;2023-06-10T02:44:45;6.50;;;4.30;;
25331;SDS011;13284;52.748;13.452;2023-06-10T02:47:10;7.53;;;4.53;;
25331;SDS011;13284;52.748;13.452;2023-06-10T02:49:36;8.57;;;4.00;;
25331;SDS011;13284;52.748;13.452;2023-06-10T02:52:02;7.20;;;4.57;;
25331;SDS011;13284;52.748;13.452;2023-06-10T02:54:27;6.47;;;4.43;;
25331;SDS011;13284;52.748;13.452;2023-06-10T02:56:53;6.87;;;3.60;;
25331;SDS011;13284;52.748;13.452;2023-06-10T02:59:20;12.07;;;4.43;;
25331;SDS011;13284;52.748;13.452;2023-06-10T03:01:46;6.00;;;4.00;;
25331;SDS011;13284;52.748;13.452;2023-06-10T03:04:12;5.30;;;4.03;;
25331;SDS011;13284;52.748;13.452;2023-06-10T03:06:39;7.60;;;4.30;;
25331;SDS011;13284;52.748;13.452;2023-06-10T03:09:06;6.67;;;4.10;;
25331;SDS011;13284;52.748;13.452;2023-06-10T03:11:32;5.40;;;4.10;;
25331;SDS011;13284;52.748;13.452;2023-06-10T03:13:58;5.80;;;3.33;;
25331;SDS011;13284;52.748;13.452;2023-06-10T03:16:23;8.03;;;4.50;;
25331;SDS011;13284;52.748;13.452;2023-06-10T03:18:52;7.53;;;4.70;;
25331;SDS011;13284;52.748;13.452;2023-06-10T03:21:18;9.63;;;4.07;;
25331;SDS011;13284;52.748;13.452;2023-06-10T03:23:44;5.50;;;4.23;;
25331;SDS011;13284;52.748;13.452;2023-06-10T03:26:10;9.23;;;4.17;;
25331;SDS011;13284;52.748;13.452;2023-06-10T03:28:37;11.07;;;4.73;;
25331;SDS011;13284;52.748;13.452;2023-06-10T03:31:03;10.43;;;5.53;;
25331;SDS011;13284;52.748;13.452;2023-06-10T03:33:28;5.93;;;3.93;;
25331;SDS011;13284;52.748;13.452;2023-06-10T03:35:55;7.63;;;4.77;;
25331;SDS011;13284;52.748;13.452;2023-06-10T03:38:23;5.93;;;4.37;;
25331;SDS011;13284;52.748;13.452;2023-06-10T03:40:49;7.80;;;4.50;;
25331;SDS011;13284;52.748;13.452;2023-06-10T03:43:14;5.00;;;4.07;;
25331;SDS011;13284;52.748;13.452;2023-06-10T03:45:40;6.43;;;4.20;;
25331;SDS011;13284;52.748;13.452;2023-06-10T03:48:06;8.00;;;4.50;;
25331;SDS011;13284;52.748;13.452;2023-06-10T03:50:33;6.87;;;4.17;;
25331;SDS011;13284;52.748;13.452;2023-06-10T03:52:59;7.30;;;4.57;;
25331;SDS011;13284;52.748;13.452;2023-06-10T03:55:25;9.27;;;5.40;;
25331;SDS011;13284;52.748;13.452;2023-06-10T03:57:50;8.67;;;4.43;;
25331;SDS011;13284;52.748;13.452;2023-06-10T04:00:16;4.90;;;4.37;;
25331;SDS011;13284;52.748;13.452;2023-06-10T04:02:43;7.20;;;4.50;;
25331;SDS011;13284;52.748;13.452;2023-06-10T04:05:12;7.10;;;4.80;;
25331;SDS011;13284;52.748;13.452;2023-06-10T04:07:39;7.50;;;5.10;;
25331;SDS011;13284;52.748;13.452;2023-06-10T04:10:06;8.03;;;4.53;;
25331;SDS011;13284;52.748;13.452;2023-06-10T04:12:32;7.13;;;4.87;;
25331;SDS011;13284;52.748;13.452;2023-06-10T04:14:57;7.73;;;4.33;;
25331;SDS011;13284;52.748;13.452;2023-06-10T04:17:23;6.43;;;4.80;;
25331;SDS011;13284;52.748;13.452;2023-06-10T04:19:49;6.90;;;5.30;;
25331;SDS011;13284;52.748;13.452;2023-06-10T04:22:15;10.00;;;5.20;;
25331;SDS011;13284;52.748;13.452;2023-06-10T04:24:41;8.17;;;4.50;;
25331;SDS011;13284;52.748;13.452;2023-06-10T04:27:07;8.27;;;5.10;;
25331;SDS011;13284;52.748;13.452;2023-06-10T04:29:33;5.30;;;4.53;;
25331;SDS011;13284;52.748;13.452;2023-06-10T04:31:59;11.90;;;5.70;;
25331;SDS011;13284;52.748;13.452;2023-06-10T04:34:26;8.73;;;5.73;;
25331;SDS011;13284;52.748;13.452;2023-06-10T04:36:52;6.40;;;5.00;;
25331;SDS011;13284;52.748;13.452;2023-06-10T04:39:18;8.33;;;4.70;;
25331;SDS011;13284;52.748;13.452;2023-06-10T04:41:43;7.60;;;4.90;;
25331;SDS011;13284;52.748;13.452;2023-06-10T04:44:09;13.50;;;5.57;;
25331;SDS011;13284;52.748;13.452;2023-06-10T04:46:35;6.03;;;4.67;;
25331;SDS011;13284;52.748;13.452;2023-06-10T04:49:01;10.73;;;4.97;;
25331;SDS011;13284;52.748;13.452;2023-06-10T04:51:27;8.40;;;5.50;;
25331;SDS011;13284;52.748;13.452;2023-06-10T04:53:53;8.83;;;5.40;;
25331;SDS011;13284;52.748;13.452;2023-06-10T04:56:18;6.90;;;5.37;;
25331;SDS011;13284;52.748;13.452;2023-06-10T04:58:45;6.30;;;4.27;;
25331;SDS011;13284;52.748;13.452;2023-06-10T05:01:10;9.10;;;4.77;;
25331;SDS011;13284;52.748;13.452;2023-06-10T05:03:36;5.93;;;5.30;;
25331;SDS011;13284;52.748;13.452;2023-06-10T05:06:01;7.53;;;4.97;;
25331;SDS011;13284;52.748;13.452;2023-06-10T05:08:27;7.47;;;6.07;;
25331;SDS011;13284;52.748;13.452;2023-06-10T05:10:52;8.93;;;4.73;;
25331;SDS011;13284;52.748;13.452;2023-06-10T05:13:18;6.87;;;4.50;;
25331;SDS011;13284;52.748;13.452;2023-06-10T05:15:43;10.83;;;5.10;;
25331;SDS011;13284;52.748;13.452;2023-06-10T05:18:10;8.27;;;5.10;;
25331;SDS011;13284;52.748;13.452;2023-06-10T05:20:37;5.60;;;5.13;;
25331;SDS011;13284;52.748;13.452;2023-06-10T05:23:03;8.33;;;5.07;;
25331;SDS011;13284;52.748;13.452;2023-06-10T05:25:30;6.63;;;5.23;;
25331;SDS011;13284;52.748;13.452;2023-06-10T05:27:57;6.80;;;5.00;;
25331;SDS011;13284;52.748;13.452;2023-06-10T05:30:23;6.23;;;4.87;;
25331;SDS011;13284;52.748;13.452;2023-06-10T05:32:50;4.53;;;4.13;;
25331;SDS011;13284;52.748;13.452;2023-06-10T05:35:16;5.73;;;4.73;;
25331;SDS011;13284;52.748;13.452;2023-06-10T05:37:42;6.20;;;4.87;;
25331;SDS011;13284;52.748;13.452;2023-06-10T05:40:08;5.63;;;5.00;;
25331;SDS011;13284;52.748;13.452;2023-06-10T05:42:34;5.67;;;5.00;;
25331;SDS011;13284;52.748;13.452;2023-06-10T05:45:00;5.93;;;4.63;;
25331;SDS011;13284;52.748;13.452;2023-06-10T05:47:26;6.13;;;4.50;;
25331;SDS011;13284;52.748;13.452;2023-06-10T05:49:51;7.70;;;5.40;;
25331;SDS011;13284;52.748;13.452;2023-06-10T05:52:17;7.47;;;5.03;;
25331;SDS011;13284;52.748;13.452;2023-06-10T05:54:43;6.23;;;5.03;;
25331;SDS011;13284;52.748;13.452;2023-06-10T05:57:08;5.90;;;5.30;;
25331;SDS011;13284;52.748;13.452;2023-06-10T05:59:35;7.83;;;5.83;;
25331;SDS011;13284;52.748;13.452;2023-06-10T06:02:00;6.63;;;5.90;;
25331;SDS011;13284;52.748;13.452;2023-06-10T06:04:26;5.97;;;5.37;;
25331;SDS011;13284;52.748;13.452;2023-06-10T06:06:52;7.50;;;5.47;;
25331;SDS011;13284;52.748;13.452;2023-06-10T06:09:17;6.70;;;6.03;;
25331;SDS011;13284;52.748;13.452;2023-06-10T06:11:43;9.20;;;6.00;;
25331;SDS011;13284;52.748;13.452;2023-06-10T06:14:08;6.23;;;5.60;;
25331;SDS011;13284;52.748;13.452;2023-06-10T06:16:34;7.83;;;5.17;;
25331;SDS011;13284;52.748;13.452;2023-06-10T06:19:02;11.13;;;5.23;;
25331;SDS011;13284;52.748;13.452;2023-06-10T06:21:27;5.63;;;5.13;;
25331;SDS011;13284;52.748;13.452;2023-06-10T06:23:53;6.60;;;5.63;;
25331;SDS011;13284;52.748;13.452;2023-06-10T06:26:18;6.23;;;5.60;;
25331;SDS011;13284;52.748;13.452;2023-06-10T06:28:44;6.23;;;5.63;;
25331;SDS011;13284;52.748;13.452;2023-06-10T06:31:09;7.53;;;5.90;;
25331;SDS011;13284;52.748;13.452;2023-06-10T06:33:35;9.63;;;5.70;;
25331;SDS011;13284;52.748;13.452;2023-06-10T06:36:00;7.03;;;5.60;;
25331;SDS011;13284;52.748;13.452;2023-06-10T06:38:26;5.77;;;5.27;;
25331;SDS011;13284;52.748;13.452;2023-06-10T06:40:52;7.00;;;5.60;;
25331;SDS011;13284;52.748;13.452;2023-06-10T06:43:20;6.47;;;5.57;;
25331;SDS011;13284;52.748;13.452;2023-06-10T06:45:46;7.00;;;5.20;;
25331;SDS011;13284;52.748;13.452;2023-06-10T06:48:11;7.90;;;6.50;;
25331;SDS011;13284;52.748;13.452;2023-06-10T06:50:37;7.20;;;5.37;;
25331;SDS011;13284;52.748;13.452;2023-06-10T06:53:03;8.60;;;5.60;;
25331;SDS011;13284;52.748;13.452;2023-06-10T06:55:29;7.50;;;5.20;;
25331;SDS011;13284;52.748;13.452;2023-06-10T06:57:55;6.83;;;5.70;;
25331;SDS011;13284;52.748;13.452;2023-06-10T07:00:20;9.37;;;6.23;;
25331;SDS011;13284;52.748;13.452;2023-06-10T07:02:46;6.90;;;5.87;;
25331;SDS011;13284;52.748;13.452;2023-06-10T07:05:12;6.43;;;5.80;;
25331;SDS011;13284;52.748;13.452;2023-06-10T07:07:37;9.57;;;6.17;;
25331;SDS011;13284;52.748;13.452;2023-06-10T07:10:03;6.30;;;5.27;;
25331;SDS011;13284;52.748;13.452;2023-06-10T07:12:29;5.67;;;5.17;;
25331;SDS011;13284;52.748;13.452;2023-06-10T07:14:54;7.43;;;5.50;;
25331;SDS011;13284;52.748;13.452;2023-06-10T07:17:20;7.83;;;6.40;;
25331;SDS011;13284;52.748;13.452;2023-06-10T07:19:45;7.37;;;6.30;;
25331;SDS011;13284;52.748;13.452;2023-06-10T07:22:11;6.70;;;6.10;;
25331;SDS011;13284;52.748;13.452;2023-06-10T07:24:39;9.70;;;6.43;;
25331;SDS011;13284;52.748;13.452;2023-06-10T07:27:05;10.70;;;6.50;;
25331;SDS011;13284;52.748;13.452;2023-06-10T07:29:35;8.20;;;6.37;;
25331;SDS011;13284;52.748;13.452;2023-06-10T07:32:01;7.30;;;6.40;;
25331;SDS011;13284;52.748;13.452;2023-06-10T07:34:27;7.50;;;6.70;;
25331;SDS011;13284;52.748;13.452;2023-06-10T07:36:53;7.50;;;6.40;;
25331;SDS011;13284;52.748;13.452;2023-06-10T07:39:18;8.40;;;6.73;;
25331;SDS011;13284;52.748;13.452;2023-06-10T07:41:44;6.83;;;5.70;;
25331;SDS011;13284;52.748;13.452;2023-06-10T07:44:09;7.40;;;6.53;;
25331;SDS011;13284;52.748;13.452;2023-06-10T07:46:35;7.60;;;6.90;;
25331;SDS011;13284;52.748;13.452;2023-06-10T07:49:00;7.63;;;6.83;;
25331;SDS011;13284;52.748;13.452;2023-06-10T07:51:28;9.30;;;6.80;;
25331;SDS011;13284;52.748;13.452;2023-06-10T07:53:57;7.37;;;6.03;;
25331;SDS011;13284;52.748;13.452;2023-06-10T07:56:26;7.67;;;6.87;;
25331;SDS011;13284;52.748;13.452;2023-06-10T07:58:53;7.50;;;6.70;;
25331;SDS011;13284;52.748;13.452;2023-06-10T08:01:19;10.23;;;7.00;;
25331;SDS011;13284;52.748;13.452;2023-06-10T08:03:44;7.23;;;5.93;;
25331;SDS011;13284;52.748;13.452;2023-06-10T08:06:10;9.63;;;6.90;;
25331;SDS011;13284;52.748;13.452;2023-06-10T08:08:37;6.67;;;5.87;;
25331;SDS011;13284;52.748;13.452;2023-06-10T08:11:08;8.70;;;6.30;;
25331;SDS011;13284;52.748;13.452;2023-06-10T08:13:36;9.33;;;6.20;;
25331;SDS011;13284;52.748;13.452;2023-06-10T08:16:03;10.00;;;6.80;;
25331;SDS011;13284;52.748;13.452;2023-06-10T08:18:29;7.27;;;6.60;;
25331;SDS011;13284;52.748;13.452;2023-06-10T08:20:54;8.80;;;6.63;;
25331;SDS011;13284;52.748;13.452;2023-06-10T08:23:20;7.93;;;6.80;;
25331;SDS011;13284;52.748;13.452;2023-06-10T08:25:46;7.63;;;5.90;;
25331;SDS011;13284;52.748;13.452;2023-06-10T08:28:12;9.10;;;8.10;;
25331;SDS011;13284;52.748;13.452;2023-06-10T08:30:37;7.17;;;6.47;;
25331;SDS011;13284;52.748;13.452;2023-06-10T08:33:03;7.13;;;6.53;;
25331;SDS011;13284;52.748;13.452;2023-06-10T08:35:28;6.77;;;5.57;;
25331;SDS011;13284;52.748;13.452;2023-06-10T08:37:54;7.80;;;6.90;;
25331;SDS011;13284;52.748;13.452;2023-06-10T08:40:20;8.93;;;6.90;;
25331;SDS011;13284;52.748;13.452;2023-06-10T08:42:49;10.23;;;6.63;;
25331;SDS011;13284;52.748;13.452;2023-06-10T08:45:25;7.93;;;6.70;;
25331;SDS011;13284;52.748;13.452;2023-06-10T08:48:00;6.60;;;5.73;;
25331;SDS011;13284;52.748;13.452;2023-06-10T08:50:29;7.73;;;6.63;;
25331;SDS011;13284;52.748;13.452;2023-06-10T08:52:56;8.90;;;5.80;;
25331;SDS011;13284;52.748;13.452;2023-06-10T08:55:26;7.00;;;6.40;;
25331;SDS011;13284;52.748;13.452;2023-06-10T08:57:55;7.93;;;7.20;;
25331;SDS011;13284;52.748;13.452;2023-06-10T09:00:21;7.47;;;6.60;;
25331;SDS011;13284;52.748;13.452;2023-06-10T09:02:47;7.80;;;6.33;;
25331;SDS011;13284;52.748;13.452;2023-06-10T09:05:14;6.93;;;6.10;;
25331;SDS011;13284;52.748;13.452;2023-06-10T09:07:41;9.87;;;7.30;;
25331;SDS011;13284;52.748;13.452;2023-06-10T09:10:06;10.00;;;6.60;;
25331;SDS011;13284;52.748;13.452;2023-06-10T09:12:33;9.10;;;6.17;;
25331;SDS011;13284;52.748;13.452;2023-06-10T09:15:00;8.10;;;6.70;;
25331;SDS011;13284;52.748;13.452;2023-06-10T09:17:27;7.30;;;6.60;;
25331;SDS011;13284;52.748;13.452;2023-06-10T09:19:53;7.30;;;6.60;;
25331;SDS011;13284;52.748;13.452;2023-06-10T09:22:20;6.90;;;6.30;;
25331;SDS011;13284;52.748;13.452;2023-06-10T09:24:51;7.70;;;6.63;;
25331;SDS011;13284;52.748;13.452;2023-06-10T09:27:29;7.53;;;6.80;;
25331;SDS011;13284;52.748;13.452;2023-06-10T09:29:56;7.10;;;6.40;;
25331;SDS011;13284;52.748;13.452;2023-06-10T09:32:23;6.63;;;5.93;;
25331;SDS011;13284;52.748;13.452;2023-06-10T09:34:49;7.43;;;6.70;;
25331;SDS011;13284;52.748;13.452;2023-06-10T09:37:21;8.73;;;6.30;;
25331;SDS011;13284;52.748;13.452;2023-06-10T09:40:04;15.33;;;10.60;;
25331;SDS011;13284;52.748;13.452;2023-06-10T09:42:38;13.03;;;11.30;;
25331;SDS011;13284;52.748;13.452;2023-06-10T09:45:04;14.83;;;10.60;;
25331;SDS011;13284;52.748;13.452;2023-06-10T09:47:34;13.80;;;10.03;;
25331;SDS011;13284;52.748;13.452;2023-06-10T09:50:00;7.53;;;6.60;;
25331;SDS011;13284;52.748;13.452;2023-06-10T09:52:27;9.30;;;6.60;;
25331;SDS011;13284;52.748;13.452;2023-06-10T09:54:55;7.60;;;6.40;;
25331;SDS011;13284;52.748;13.452;2023-06-10T09:57:25;8.27;;;7.10;;
25331;SDS011;13284;52.748;13.452;2023-06-10T09:59:55;8.20;;;6.47;;
25331;SDS011;13284;52.748;13.452;2023-06-10T10:02:20;7.73;;;7.13;;
25331;SDS011;13284;52.748;13.452;2023-06-10T10:04:46;7.57;;;6.50;;
25331;SDS011;13284;52.748;13.452;2023-06-10T10:07:12;11.00;;;7.40;;
25331;SDS011;13284;52.748;13.452;2023-06-10T10:09:38;10.13;;;7.33;;
25331;SDS011;13284;52.748;13.452;2023-06-10T10:12:09;8.57;;;7.60;;
25331;SDS011;13284;52.748;13.452;2023-06-10T10:14:37;13.43;;;8.93;;
25331;SDS011;13284;52.748;13.452;2023-06-10T10:17:10;10.60;;;7.20;;
25331;SDS011;13284;52.748;13.452;2023-06-10T10:19:37;8.70;;;7.10;;
25331;SDS011;13284;52.748;13.452;2023-06-10T10:22:18;10.60;;;7.90;;
25331;SDS011;13284;52.748;13.452;2023-06-10T10:24:59;7.63;;;6.87;;
25331;SDS011;13284;52.748;13.452;2023-06-10T10:27:28;9.20;;;8.30;;
25331;SDS011;13284;52.748;13.452;2023-06-10T10:29:58;8.60;;;7.83;;
25331;SDS011;13284;52.748;13.452;2023-06-10T10:32:29;7.97;;;7.33;;
25331;SDS011;13284;52.748;13.452;2023-06-10T10:35:03;8.63;;;7.03;;
25331;SDS011;13284;52.748;13.452;2023-06-10T10:37:33;9.77;;;7.30;;
25331;SDS011;13284;52.748;13.452;2023-06-10T10:40:01;10.17;;;8.03;;
25331;SDS011;13284;52.748;13.452;2023-06-10T10:42:28;9.63;;;8.40;;
25331;SDS011;13284;52.748;13.452;2023-06-10T10:44:54;8.97;;;8.17;;
25331;SDS011;13284;52.748;13.452;2023-06-10T10:47:21;7.47;;;6.77;;
25331;SDS011;13284;52.748;13.452;2023-06-10T10:49:48;8.73;;;7.80;;
25331;SDS011;13284;52.748;13.452;2023-06-10T10:52:16;9.63;;;7.47;;
25331;SDS011;13284;52.748;13.452;2023-06-10T10:54:45;9.10;;;7.70;;
25331;SDS011;13284;52.748;13.452;2023-06-10T10:59:56;9.43;;;8.43;;
25331;SDS011;13284;52.748;13.452;2023-06-10T11:02:43;9.73;;;8.73;;
25331;SDS011;13284;52.748;13.452;2023-06-10T11:05:10;9.30;;;8.40;;
25331;SDS011;13284;52.748;13.452;2023-06-10T11:07:40;9.60;;;8.30;;
25331;SDS011;13284;52.748;13.452;2023-06-10T11:10:16;8.53;;;7.83;;
25331;SDS011;13284;52.748;13.452;2023-06-10T11:15:10;9.10;;;8.20;;
25331;SDS011;13284;52.748;13.452;2023-06-10T11:20:41;9.20;;;8.30;;
25331;SDS011;13284;52.748;13.452;2023-06-10T11:31:19;8.10;;;7.30;;
25331;SDS011;13284;52.748;13.452;2023-06-10T11:33:46;9.57;;;8.67;;
25331;SDS011;13284;52.748;13.452;2023-06-10T11:36:13;8.77;;;7.87;;
25331;SDS011;13284;52.748;13.452;2023-06-10T11:38:40;8.70;;;7.90;;
25331;SDS011;13284;52.748;13.452;2023-06-10T11:41:06;11.93;;;9.03;;
25331;SDS011;13284;52.748;13.452;2023-06-10T11:43:32;8.20;;;7.50;;
25331;SDS011;13284;52.748;13.452;2023-06-10T11:45:58;9.13;;;8.43;;
25331;SDS011;13284;52.748;13.452;2023-06-10T11:48:25;9.87;;;9.07;;
25331;SDS011;13284;52.748;13.452;2023-06-10T11:50:53;9.13;;;8.33;;
25331;SDS011;13284;52.748;13.452;2023-06-10T11:53:18;8.47;;;7.77;;
25331;SDS011;13284;52.748;13.452;2023-06-10T11:55:45;7.80;;;7.20;;
25331;SDS011;13284;52.748;13.452;2023-06-10T11:58:19;8.70;;;8.00;;
25331;SDS011;13284;52.748;13.452;2023-06-10T12:00:49;8.60;;;7.80;;
25331;SDS011;13284;52.748;13.452;2023-06-10T12:03:16;9.10;;;8.20;;
25331;SDS011;13284;52.748;13.452;2023-06-10T12:05:58;8.67;;;7.90;;
25331;SDS011;13284;52.748;13.452;2023-06-10T12:08:25;8.40;;;7.80;;
25331;SDS011;13284;52.748;13.452;2023-06-10T12:10:51;8.43;;;7.73;;
25331;SDS011;13284;52.748;13.452;2023-06-10T12:13:17;7.77;;;7.07;;
25331;SDS011;13284;52.748;13.452;2023-06-10T12:15:46;8.50;;;7.70;;
25331;SDS011;13284;52.748;13.452;2023-06-10T12:18:18;8.00;;;7.17;;
25331;SDS011;13284;52.748;13.452;2023-06-10T12:20:45;8.93;;;8.23;;
25331;SDS011;13284;52.748;13.452;2023-06-10T12:23:11;10.50;;;8.20;;
25331;SDS011;13284;52.748;13.452;2023-06-10T12:25:37;9.10;;;8.40;;
25331;SDS011;13284;52.748;13.452;2023-06-10T12:28:04;8.53;;;7.90;;
25331;SDS011;13284;52.748;13.452;2023-06-10T12:30:30;10.63;;;9.73;;
25331;SDS011;13284;52.748;13.452;2023-06-10T12:32:56;10.30;;;9.50;;
25331;SDS011;13284;52.748;13.452;2023-06-10T12:35:23;11.80;;;10.57;;
25331;SDS011;13284;52.748;13.452;2023-06-10T12:37:59;11.50;;;10.30;;
25331;SDS011;13284;52.748;13.452;2023-06-10T12:40:32;11.90;;;10.90;;
25331;SDS011;13284;52.748;13.452;2023-06-10T12:43:02;12.03;;;10.93;;
25331;SDS011;13284;52.748;13.452;2023-06-10T12:45:31;10.73;;;9.83;;
25331;SDS011;13284;52.748;13.452;2023-06-10T12:48:08;10.93;;;10.03;;
25331;SDS011;13284;52.748;13.452;2023-06-10T12:50:42;11.47;;;9.57;;
25331;SDS011;13284;52.748;13.452;2023-06-10T12:53:09;9.13;;;8.43;;
25331;SDS011;13284;52.748;13.452;2023-06-10T12:55:38;9.37;;;8.47;;
25331;SDS011;13284;52.748;13.452;2023-06-10T12:58:04;9.37;;;8.67;;
25331;SDS011;13284;52.748;13.452;2023-06-10T13:00:30;8.30;;;7.60;;
25331;SDS011;13284;52.748;13.452;2023-06-10T13:02:56;9.40;;;8.70;;
25331;SDS011;13284;52.748;13.452;2023-06-10T13:05:23;9.07;;;8.30;;
25331;SDS011;13284;52.748;13.452;2023-06-10T13:07:48;8.70;;;7.90;;
25331;SDS011;13284;52.748;13.452;2023-06-10T13:10:15;7.87;;;7.17;;
25331;SDS011;13284;52.748;13.452;2023-06-10T13:12:42;9.30;;;8.40;;
25331;SDS011;13284;52.748;13.452;2023-06-10T13:15:08;9.47;;;8.57;;
25331;SDS011;13284;52.748;13.452;2023-06-10T13:17:34;8.93;;;8.23;;
25331;SDS011;13284;52.748;13.452;2023-06-10T13:20:01;8.90;;;8.00;;
25331;SDS011;13284;52.748;13.452;2023-06-10T13:22:30;9.67;;;8.90;;
25331;SDS011;13284;52.748;13.452;2023-06-10T13:24:58;9.53;;;8.83;;
25331;SDS011;13284;52.748;13.452;2023-06-10T13:27:24;9.83;;;9.03;;
25331;SDS011;13284;52.748;13.452;2023-06-10T13:29:50;7.67;;;7.07;;
25331;SDS011;13284;52.748;13.452;2023-06-10T13:32:15;8.37;;;7.73;;
25331;SDS011;13284;52.748;13.452;2023-06-10T13:34:41;9.10;;;8.40;;
25331;SDS011;13284;52.748;13.452;2023-06-10T13:37:06;8.13;;;7.50;;
25331;SDS011;13284;52.748;13.452;2023-06-10T13:39:32;8.03;;;7.40;;
25331;SDS011;13284;52.748;13.452;2023-06-10T13:41:57;8.40;;;7.73;;
25331;SDS011;13284;52.748;13.452;2023-06-10T13:44:23;8.13;;;7.43;;
25331;SDS011;13284;52.748;13.452;2023-06-10T13:46:48;9.20;;;8.33;;
25331;SDS011;13284;52.748;13.452;2023-06-10T13:49:13;13.83;;;7.90;;
25331;SDS011;13284;52.748;13.452;2023-06-10T13:51:39;17.63;;;10.93;;
25331;SDS011;13284;52.748;13.452;2023-06-10T13:54:04;11.83;;;8.30;;
25331;SDS011;13284;52.748;13.452;2023-06-10T13:56:30;8.07;;;7.50;;
25331;SDS011;13284;52.748;13.452;2023-06-10T13:58:56;8.80;;;8.10;;
25331;SDS011;13284;52.748;13.452;2023-06-10T14:01:21;8.90;;;8.20;;
25331;SDS011;13284;52.748;13.452;2023-06-10T14:03:47;8.80;;;8.10;;
25331;SDS011;13284;52.748;13.452;2023-06-10T14:06:12;8.43;;;7.83;;
25331;SDS011;13284;52.748;13.452;2023-06-10T14:08:43;10.17;;;9.27;;
25331;SDS011;13284;52.748;13.452;2023-06-10T14:11:08;8.40;;;7.80;;
25331;SDS011;13284;52.748;13.452;2023-06-10T14:13:34;8.77;;;8.13;;
25331;SDS011;13284;52.748;13.452;2023-06-10T14:15:59;9.50;;;8.60;;
25331;SDS011;13284;52.748;13.452;2023-06-10T14:18:27;8.97;;;8.07;;
25331;SDS011;13284;52.748;13.452;2023-06-10T14:20:53;8.40;;;7.70;;
25331;SDS011;13284;52.748;13.452;2023-06-10T14:23:18;8.77;;;7.97;;
25331;SDS011;13284;52.748;13.452;2023-06-10T14:25:44;8.97;;;8.17;;
25331;SDS011;13284;52.748;13.452;2023-06-10T14:28:09;8.43;;;7.73;;
25331;SDS011;13284;52.748;13.452;2023-06-10T14:30:35;8.80;;;7.90;;
25331;SDS011;13284;52.748;13.452;2023-06-10T14:33:00;9.03;;;8.23;;
25331;SDS011;13284;52.748;13.452;2023-06-10T14:35:26;7.50;;;6.90;;
25331;SDS011;13284;52.748;13.452;2023-06-10T14:37:51;7.30;;;6.70;;
25331;SDS011;13284;52.748;13.452;2023-06-10T14:40:17;9.03;;;8.33;;
25331;SDS011;13284;52.748;13.452;2023-06-10T14:42:42;8.20;;;7.60;;
25331;SDS011;13284;52.748;13.452;2023-06-10T14:45:08;8.03;;;7.37;;
25331;SDS011;13284;52.748;13.452;2023-06-10T14:47:35;8.00;;;7.40;;
25331;SDS011;13284;52.748;13.452;2023-06-10T14:50:00;7.77;;;7.17;;
25331;SDS011;13284;52.748;13.452;2023-06-10T14:52:26;7.90;;;7.13;;
25331;SDS011;13284;52.748;13.452;2023-06-10T14:54:51;8.33;;;7.73;;